CheckWX is a tool to help pilots better visualize weather data.  It is not intended as a substitute for an official pre-flight weather briefing.

20:21:22 UTC

UMII TAF
Vitebsk East Airport
Vitebsk, Belarus
TAF UMII 251405Z 2518/2524 01003MPS 9999 SCT020 TEMPO 2521/2524 2000 BR SCT005

Jun-25@
18:00 UTC

Jun-25 @ 18:00 UTC

Jun-26@
00:00 UTC

Jun-26 @ 00:00 UTC

TAF UMII 251405Z 2518/2524 01003MPS 9999 SCT020
Wind
  • 010° at 6 KTS
Cloud Levels
  • Scattered at 2,000' AGL

Jun-25@
21:00 UTC

Jun-25 @ 21:00 UTC

Jun-26@
00:00 UTC

Jun-26 @ 00:00 UTC

TEMPO 2521/2524 2000 BR SCT005

Temporary

Temporary Changes expected for less than half the time period

Conditions
Mist
Cloud Levels
  • Scattered at 500' AGL